createdAt,value
2022-08-12T00:00:08.663Z,2.80
2022-08-12T00:02:54.879Z,3.03
2022-08-12T00:06:00.412Z,2.78
2022-08-12T00:08:50.387Z,2.50
2022-08-12T00:11:35.771Z,2.78
2022-08-12T00:14:21.322Z,3.20
2022-08-12T00:17:06.697Z,3.03
2022-08-12T00:19:52.307Z,2.78
2022-08-12T00:22:39.238Z,2.90
2022-08-12T00:26:05.408Z,2.95
2022-08-12T00:28:30.400Z,2.50
2022-08-12T00:31:16.113Z,2.78
2022-08-12T00:34:01.470Z,2.60
2022-08-12T00:36:48.887Z,2.35
2022-08-12T00:39:36.320Z,2.85
2022-08-12T00:42:13.016Z,2.55
2022-08-12T00:44:43.521Z,2.60
2022-08-12T00:47:24.860Z,2.67
2022-08-12T00:49:54.482Z,2.70
2022-08-12T00:52:21.290Z,2.53
2022-08-12T00:54:50.901Z,2.70
2022-08-12T00:57:21.048Z,2.65
2022-08-12T00:59:57.667Z,2.88
2022-08-12T01:02:33.325Z,2.90
2022-08-12T01:05:27.536Z,2.38
2022-08-12T01:08:13.837Z,2.90
2022-08-12T01:11:01.847Z,3.22
2022-08-12T01:13:31.242Z,2.65
2022-08-12T01:16:00.125Z,2.70
2022-08-12T01:18:30.106Z,2.70
2022-08-12T01:21:03.961Z,2.50
2022-08-12T01:23:41.875Z,3.35
2022-08-12T01:26:11.261Z,2.95
2022-08-12T01:28:40.241Z,2.85
2022-08-12T01:31:08.249Z,3.30
2022-08-12T01:34:28.747Z,3.00
2022-08-12T01:37:02.065Z,2.90
2022-08-12T01:40:35.258Z,3.10
2022-08-12T01:42:41.713Z,2.72
2022-08-12T01:45:09.937Z,2.90
2022-08-12T01:48:05.271Z,2.85
2022-08-12T01:50:50.671Z,3.08
2022-08-12T01:53:20.915Z,3.00
2022-08-12T01:55:49.584Z,3.58
2022-08-12T01:59:00.983Z,3.47
2022-08-12T02:01:39.341Z,3.30
2022-08-12T02:04:49.590Z,3.45
2022-08-12T02:08:02.161Z,3.85
2022-08-12T02:11:06.892Z,3.25
2022-08-12T02:13:58.103Z,3.30
2022-08-12T02:16:45.860Z,3.72
2022-08-12T02:19:50.066Z,3.85
2022-08-12T02:22:50.386Z,3.40
2022-08-12T02:25:33.652Z,3.50
2022-08-12T02:28:01.246Z,3.47
2022-08-12T02:30:42.307Z,3.53
2022-08-12T02:33:10.456Z,3.25
2022-08-12T02:35:39.576Z,3.42
2022-08-12T02:38:09.507Z,4.20
2022-08-12T02:40:39.500Z,3.53
2022-08-12T02:43:21.730Z,3.40
2022-08-12T02:46:04.440Z,3.00
2022-08-12T02:48:58.145Z,3.40
2022-08-12T02:51:31.347Z,3.60
2022-08-12T02:54:02.921Z,3.13
2022-08-12T02:56:33.034Z,3.58
2022-08-12T02:59:00.848Z,3.58
2022-08-12T03:01:34.038Z,3.40
2022-08-12T03:04:05.247Z,3.20
2022-08-12T03:06:43.493Z,3.25
2022-08-12T03:09:14.548Z,3.08
2022-08-12T03:11:54.558Z,3.35
2022-08-12T03:14:25.791Z,3.30
2022-08-12T03:17:08.268Z,3.22
2022-08-12T03:19:38.486Z,3.28
2022-08-12T03:22:26.279Z,2.92
2022-08-12T03:24:54.649Z,3.35
2022-08-12T03:27:25.086Z,3.20
2022-08-12T03:29:53.526Z,3.35
2022-08-12T03:32:45.537Z,3.33
2022-08-12T03:35:38.352Z,2.78
2022-08-12T03:38:05.349Z,3.20
2022-08-12T03:41:18.299Z,3.22
2022-08-12T03:44:14.835Z,3.35
2022-08-12T03:47:03.825Z,3.28
2022-08-12T03:49:49.454Z,3.05
2022-08-12T03:52:34.854Z,2.85
2022-08-12T03:55:19.889Z,3.80
2022-08-12T03:58:07.818Z,3.72
2022-08-12T04:00:37.121Z,3.45
2022-08-12T04:03:07.739Z,3.25
2022-08-12T04:05:56.092Z,4.60
2022-08-12T04:08:26.540Z,4.22
2022-08-12T04:11:12.892Z,3.53
2022-08-12T04:13:41.034Z,3.53
2022-08-12T04:16:10.701Z,4.03
2022-08-12T04:18:40.378Z,3.00
2022-08-12T04:21:10.525Z,3.20
2022-08-12T04:23:38.799Z,3.80
2022-08-12T04:26:06.718Z,3.30
2022-08-12T04:28:33.942Z,3.03
2022-08-12T04:31:01.271Z,4.30
2022-08-12T04:33:27.988Z,3.30
2022-08-12T04:35:55.137Z,3.92
2022-08-12T04:38:23.933Z,3.85
2022-08-12T04:40:51.732Z,3.70
2022-08-12T04:44:00.164Z,3.88
2022-08-12T04:46:05.322Z,3.20
2022-08-12T04:48:32.045Z,3.08
2022-08-12T04:50:59.302Z,3.40
2022-08-12T04:53:26.217Z,3.03
2022-08-12T04:55:53.249Z,2.92
2022-08-12T04:58:29.656Z,3.03
2022-08-12T05:00:57.095Z,3.20
2022-08-12T05:03:26.413Z,2.45
2022-08-12T05:05:55.655Z,2.70
2022-08-12T05:08:23.644Z,3.08
2022-08-12T05:10:50.351Z,2.70
2022-08-12T05:13:21.100Z,3.00
2022-08-12T05:16:04.775Z,2.53
2022-08-12T05:18:39.750Z,2.78
2022-08-12T05:21:08.042Z,2.55
2022-08-12T05:23:37.578Z,2.90
2022-08-12T05:26:06.080Z,3.08
2022-08-12T05:28:33.151Z,2.28
2022-08-12T05:31:01.728Z,2.40
2022-08-12T05:33:37.543Z,3.00
2022-08-12T05:36:07.650Z,3.40
2022-08-12T05:38:53.866Z,2.67
2022-08-12T05:41:21.137Z,2.78
2022-08-12T05:43:51.957Z,2.78
2022-08-12T05:46:19.877Z,3.17
2022-08-12T05:48:47.303Z,2.78
2022-08-12T05:51:13.988Z,2.92
2022-08-12T05:53:41.202Z,2.78
2022-08-12T05:56:25.318Z,2.50
2022-08-12T05:58:53.290Z,2.65
2022-08-12T06:02:10.936Z,2.90
2022-08-12T06:04:09.350Z,2.55
2022-08-12T06:06:39.694Z,2.42
2022-08-12T06:09:06.556Z,2.38
2022-08-12T06:11:33.975Z,2.42
2022-08-12T06:14:00.611Z,2.67
2022-08-12T06:16:27.393Z,2.40
2022-08-12T06:18:54.740Z,2.28
2022-08-12T06:21:23.377Z,2.38
2022-08-12T06:23:51.670Z,2.50
2022-08-12T06:26:20.281Z,1.95
2022-08-12T06:28:51.113Z,2.30
2022-08-12T06:31:27.319Z,2.60
2022-08-12T06:34:00.291Z,2.35
2022-08-12T06:36:42.787Z,2.55
2022-08-12T06:39:14.469Z,2.05
2022-08-12T06:42:25.271Z,2.53
2022-08-12T06:44:48.533Z,2.53
2022-08-12T06:47:16.720Z,2.00
2022-08-12T06:49:44.546Z,2.30
2022-08-12T06:52:11.486Z,1.88
2022-08-12T06:54:38.109Z,2.72
2022-08-12T06:58:05.418Z,2.17
2022-08-12T06:59:51.726Z,2.20
2022-08-12T07:02:20.914Z,2.10
2022-08-12T07:04:47.603Z,2.47
2022-08-12T07:07:14.725Z,2.10
2022-08-12T07:10:04.267Z,2.38
2022-08-12T07:12:29.465Z,2.20
2022-08-12T07:15:01.562Z,2.08
2022-08-12T07:17:37.302Z,2.00
2022-08-12T07:23:00.693Z,2.17
2022-08-12T07:25:30.913Z,2.05
2022-08-12T07:28:25.542Z,2.17
2022-08-12T07:30:53.668Z,2.05
2022-08-12T07:33:23.473Z,2.28
2022-08-12T07:35:54.399Z,2.10
2022-08-12T07:38:28.808Z,1.88
2022-08-12T07:41:14.679Z,1.95
2022-08-12T07:43:54.914Z,2.10
2022-08-12T07:46:25.895Z,2.20
2022-08-12T07:48:55.493Z,1.80
2022-08-12T07:51:25.126Z,1.92
2022-08-12T07:54:00.120Z,1.80
2022-08-12T07:56:29.076Z,2.13
2022-08-12T07:58:58.891Z,1.95
2022-08-12T08:01:25.644Z,1.70
2022-08-12T08:04:17.935Z,1.90
2022-08-12T08:06:46.798Z,1.77
2022-08-12T08:09:16.877Z,1.80
2022-08-12T08:12:02.062Z,1.67
2022-08-12T08:14:29.249Z,1.88
2022-08-12T08:16:58.805Z,1.30
2022-08-12T08:19:26.925Z,1.67
2022-08-12T08:21:54.896Z,1.70
2022-08-12T08:24:24.563Z,1.60
2022-08-12T08:26:54.765Z,1.92
2022-08-12T08:29:22.154Z,1.60
2022-08-12T08:31:54.166Z,1.65
2022-08-12T08:34:40.115Z,1.92
2022-08-12T08:37:10.658Z,1.98
2022-08-12T08:39:42.356Z,1.80
2022-08-12T08:42:27.598Z,1.75
2022-08-12T08:44:58.775Z,1.80
2022-08-12T08:47:25.954Z,1.50
2022-08-12T08:49:52.671Z,1.52
2022-08-12T08:52:40.084Z,1.65
2022-08-12T08:55:13.837Z,1.38
2022-08-12T08:57:42.990Z,1.50
2022-08-12T09:00:19.781Z,1.40
2022-08-12T09:02:49.046Z,1.50
2022-08-12T09:05:26.011Z,1.80
2022-08-12T09:08:09.124Z,2.00
2022-08-12T09:10:40.724Z,1.65
2022-08-12T09:14:11.554Z,1.70
2022-08-12T09:16:20.744Z,1.85
2022-08-12T09:18:48.361Z,1.70
2022-08-12T09:21:20.013Z,1.60
2022-08-12T09:23:57.192Z,1.70
2022-08-12T09:26:46.605Z,1.70
2022-08-12T09:29:15.390Z,1.70
2022-08-12T09:32:03.334Z,1.73
2022-08-12T09:34:36.282Z,1.58
2022-08-12T09:37:19.167Z,1.58
2022-08-12T09:40:02.082Z,1.60
2022-08-12T09:43:15.582Z,1.60
2022-08-12T09:46:11.147Z,1.70
2022-08-12T09:48:36.279Z,1.90
2022-08-12T09:51:16.670Z,1.90
2022-08-12T09:54:08.593Z,1.60
2022-08-12T09:56:58.210Z,1.73
2022-08-12T10:00:15.015Z,1.65
2022-08-12T10:02:45.812Z,1.50
2022-08-12T10:04:59.442Z,1.80
2022-08-12T10:07:30.989Z,1.70
2022-08-12T10:10:22.722Z,1.73
2022-08-12T10:13:12.360Z,1.90
2022-08-12T10:16:01.923Z,1.50
2022-08-12T10:18:32.242Z,1.67
2022-08-12T10:20:59.263Z,1.70
2022-08-12T10:23:40.098Z,1.60
2022-08-12T10:26:38.498Z,1.63
2022-08-12T10:30:37.473Z,1.65
2022-08-12T10:32:56.327Z,1.50
2022-08-12T10:35:08.635Z,1.48
2022-08-12T10:38:33.324Z,1.52
2022-08-12T10:40:28.581Z,1.50
2022-08-12T10:43:17.400Z,1.70
2022-08-12T10:45:46.051Z,1.17
2022-08-12T10:48:21.497Z,1.95
2022-08-12T10:51:51.493Z,1.60
2022-08-12T10:53:52.908Z,1.50
2022-08-12T10:56:19.570Z,1.45
2022-08-12T10:58:48.927Z,1.33
2022-08-12T11:01:49.598Z,1.70
2022-08-12T11:04:25.696Z,1.73
2022-08-12T11:07:08.462Z,1.83
2022-08-12T11:10:00.509Z,1.50
2022-08-12T11:12:55.449Z,1.48
2022-08-12T11:15:21.379Z,1.30
2022-08-12T11:17:53.699Z,1.30
2022-08-12T11:20:30.918Z,1.50
2022-08-12T11:23:04.031Z,1.70
2022-08-12T11:25:58.038Z,1.48
2022-08-12T11:28:33.969Z,1.48
2022-08-12T11:34:05.378Z,1.27
2022-08-12T11:36:17.007Z,1.70
2022-08-12T11:38:50.948Z,1.58
2022-08-12T11:41:31.150Z,1.75
2022-08-12T11:44:36.656Z,1.65
2022-08-12T11:46:51.045Z,1.40
2022-08-12T11:49:20.559Z,1.15
2022-08-12T11:51:59.030Z,1.20
2022-08-12T11:54:25.748Z,1.52
2022-08-12T11:57:00.278Z,1.40
2022-08-12T12:02:04.533Z,1.30
2022-08-12T12:02:20.126Z,1.30
2022-08-12T12:04:52.350Z,1.20
2022-08-12T12:07:22.042Z,1.20
2022-08-12T12:09:52.837Z,1.10
2022-08-12T12:12:22.448Z,1.02
2022-08-12T12:14:54.820Z,1.05
2022-08-12T12:17:25.363Z,1.00
2022-08-12T12:19:53.227Z,1.05
2022-08-12T12:22:23.743Z,0.82
2022-08-12T12:24:58.148Z,1.05
2022-08-12T12:27:40.171Z,1.00
2022-08-12T12:30:19.682Z,1.05
2022-08-12T12:32:56.958Z,1.00
2022-08-12T12:36:18.211Z,1.08
2022-08-12T12:38:12.762Z,1.10
2022-08-12T12:40:45.788Z,1.10
2022-08-12T12:43:17.690Z,0.82
2022-08-12T12:45:57.025Z,1.10
2022-08-12T12:48:23.849Z,1.30
2022-08-12T12:51:50.057Z,1.20
2022-08-12T12:54:10.428Z,0.90
2022-08-12T12:56:40.367Z,1.00
2022-08-12T12:59:07.545Z,0.82
2022-08-12T13:01:54.786Z,0.95
2022-08-12T13:04:22.504Z,0.90
2022-08-12T13:06:52.063Z,1.42
2022-08-12T13:09:22.821Z,1.00
2022-08-12T13:11:53.504Z,1.10
2022-08-12T13:14:29.181Z,0.90
2022-08-12T13:17:06.241Z,1.00
2022-08-12T13:19:43.249Z,0.75
2022-08-12T13:22:19.322Z,0.80
2022-08-12T13:24:52.214Z,0.80
2022-08-12T13:30:00.853Z,1.08
2022-08-12T13:32:31.625Z,1.00
2022-08-12T13:35:04.298Z,0.90
2022-08-12T13:37:55.169Z,0.80
2022-08-12T13:40:27.310Z,1.30
2022-08-12T13:42:57.994Z,1.02
2022-08-12T13:45:30.214Z,1.05
2022-08-12T13:48:01.822Z,1.05
2022-08-12T13:50:36.477Z,1.08
2022-08-12T13:53:23.908Z,1.00
2022-08-12T13:56:01.434Z,0.90
2022-08-12T13:58:30.667Z,1.00
2022-08-12T14:00:59.453Z,1.30
2022-08-12T14:03:28.138Z,0.77
2022-08-12T14:05:59.163Z,0.98
2022-08-12T14:08:34.558Z,0.85
2022-08-12T14:11:02.237Z,0.90
2022-08-12T14:14:03.230Z,1.10
2022-08-12T14:16:47.177Z,0.93
2022-08-12T14:19:10.651Z,1.08
2022-08-12T14:22:01.154Z,0.90
2022-08-12T14:24:34.924Z,1.20
2022-08-12T14:27:02.738Z,1.08
2022-08-12T14:29:56.195Z,1.13
2022-08-12T14:32:18.146Z,0.90
2022-08-12T14:34:49.010Z,0.90
2022-08-12T14:37:57.413Z,0.95
2022-08-12T14:40:04.078Z,1.00
2022-08-12T14:42:30.785Z,1.30
2022-08-12T14:45:01.033Z,0.90
2022-08-12T14:47:34.955Z,0.90
2022-08-12T14:50:37.754Z,1.05
2022-08-12T14:56:59.499Z,1.08
2022-08-12T14:58:27.927Z,0.80
2022-08-12T15:01:13.114Z,0.77
2022-08-12T15:03:56.882Z,0.82
2022-08-12T15:06:44.121Z,1.10
2022-08-12T15:09:14.036Z,0.90
2022-08-12T15:11:54.472Z,1.02
2022-08-12T15:14:25.562Z,0.95
2022-08-12T15:16:53.746Z,0.70
2022-08-12T15:20:11.666Z,1.05
2022-08-12T15:22:37.786Z,1.02
2022-08-12T15:24:53.936Z,1.05
2022-08-12T15:27:22.307Z,1.00
2022-08-12T15:29:58.123Z,0.75
2022-08-12T15:32:32.294Z,1.00
2022-08-12T15:35:02.678Z,0.95
2022-08-12T15:38:09.322Z,1.10
2022-08-12T15:40:29.987Z,0.93
2022-08-12T15:43:01.051Z,0.90
2022-08-12T15:45:32.239Z,1.58
2022-08-12T15:48:04.519Z,1.20
2022-08-12T15:50:45.540Z,1.17
2022-08-12T15:53:15.380Z,1.00
2022-08-12T15:55:46.284Z,0.85
2022-08-12T15:58:16.721Z,1.10
2022-08-12T16:00:43.849Z,1.10
2022-08-12T16:03:19.024Z,1.13
2022-08-12T16:06:19.086Z,1.15
2022-08-12T16:11:14.797Z,1.20
2022-08-12T16:13:45.306Z,1.00
2022-08-12T16:16:23.998Z,1.02
2022-08-12T16:18:56.121Z,1.20
2022-08-12T16:21:52.813Z,1.10
2022-08-12T16:24:11.325Z,1.10
2022-08-12T16:26:40.528Z,1.00
2022-08-12T16:29:15.136Z,0.90
2022-08-12T16:31:44.138Z,1.00
2022-08-12T16:34:42.015Z,1.15
2022-08-12T16:37:09.385Z,1.27
2022-08-12T16:40:01.247Z,1.20
2022-08-12T16:42:28.278Z,0.80
2022-08-12T16:45:01.967Z,1.55
2022-08-12T16:47:31.181Z,1.13
2022-08-12T16:50:31.048Z,0.90
2022-08-12T16:52:59.719Z,0.90
2022-08-12T16:55:41.828Z,1.45
2022-08-12T16:58:28.012Z,0.93
2022-08-12T17:00:55.506Z,1.10
2022-08-12T17:03:28.760Z,1.10
2022-08-12T17:05:56.174Z,0.93
2022-08-12T17:08:29.299Z,1.08
2022-08-12T17:10:56.350Z,1.00
2022-08-12T17:13:26.154Z,1.02
2022-08-12T17:16:05.055Z,1.10
2022-08-12T17:18:43.820Z,1.38
2022-08-12T17:21:40.886Z,1.10
2022-08-12T17:24:15.267Z,1.10
2022-08-12T17:26:45.063Z,1.10
2022-08-12T17:29:18.649Z,1.00
2022-08-12T17:32:00.163Z,1.50
2022-08-12T17:34:48.446Z,1.20
2022-08-12T17:40:15.140Z,1.00
2022-08-12T17:42:35.418Z,1.33
2022-08-12T17:45:17.004Z,1.10
2022-08-12T17:48:00.017Z,1.00
2022-08-12T17:50:38.008Z,1.50
2022-08-12T17:53:05.842Z,1.00
2022-08-12T17:55:44.713Z,1.20
2022-08-12T17:58:35.819Z,1.00
2022-08-12T18:01:05.948Z,1.42
2022-08-12T18:03:57.543Z,1.00
2022-08-12T18:06:27.798Z,1.10
2022-08-12T18:08:56.856Z,1.02
2022-08-12T18:12:04.320Z,1.17
2022-08-12T18:14:32.645Z,1.20
2022-08-12T18:17:05.712Z,0.95
2022-08-12T18:20:05.385Z,1.08
2022-08-12T18:22:31.016Z,1.00
2022-08-12T18:25:03.774Z,1.10
2022-08-12T18:27:44.091Z,0.93
2022-08-12T18:30:16.417Z,1.30
2022-08-12T18:32:58.361Z,1.30
2022-08-12T18:35:47.748Z,1.05
2022-08-12T18:38:16.870Z,1.00
2022-08-12T18:41:04.693Z,1.20
2022-08-12T18:43:39.076Z,1.20
2022-08-12T18:46:29.272Z,1.52
2022-08-12T18:49:19.010Z,1.20
2022-08-12T18:51:55.147Z,1.70
2022-08-12T18:54:30.809Z,1.83
2022-08-12T18:57:06.968Z,2.00
2022-08-12T19:00:01.360Z,1.70
2022-08-12T19:02:32.930Z,2.15
2022-08-12T19:05:08.062Z,1.60
2022-08-12T19:07:50.163Z,1.65
2022-08-12T19:10:27.825Z,1.95
2022-08-12T19:13:20.987Z,1.73
2022-08-12T19:15:53.218Z,2.53
2022-08-12T19:18:22.151Z,2.58
2022-08-12T19:20:50.570Z,2.58
2022-08-12T19:23:21.498Z,2.22
2022-08-12T19:26:01.168Z,2.00
2022-08-12T19:28:34.657Z,1.67
2022-08-12T19:31:56.276Z,1.50
2022-08-12T19:34:56.486Z,1.90
2022-08-12T19:38:02.991Z,2.75
2022-08-12T19:40:30.574Z,1.80
2022-08-12T19:43:17.319Z,1.58
2022-08-12T19:45:56.249Z,1.40
2022-08-12T19:48:30.304Z,1.30
2022-08-12T19:50:57.796Z,1.55
2022-08-12T19:53:24.988Z,1.33
2022-08-12T19:55:55.748Z,1.50
2022-08-12T19:58:25.748Z,1.55
2022-08-12T20:00:54.927Z,1.55
2022-08-12T20:03:38.767Z,1.67
2022-08-12T20:06:13.660Z,1.75
2022-08-12T20:08:48.905Z,1.40
2022-08-12T20:12:15.307Z,2.00
2022-08-12T20:14:19.223Z,2.10
2022-08-12T20:16:52.529Z,2.08
2022-08-12T20:19:52.571Z,1.70
2022-08-12T20:22:24.439Z,1.95
2022-08-12T20:24:57.142Z,1.80
2022-08-12T20:27:29.862Z,2.20
2022-08-12T20:30:52.514Z,2.00
2022-08-12T20:33:32.626Z,1.92
2022-08-12T20:36:39.950Z,1.90
2022-08-12T20:41:30.364Z,2.00
2022-08-12T20:43:59.500Z,1.90
2022-08-12T20:46:31.597Z,1.85
2022-08-12T20:49:00.231Z,1.75
2022-08-12T20:51:51.172Z,1.60
2022-08-12T20:54:15.338Z,1.70
2022-08-12T20:56:45.306Z,2.15
2022-08-12T20:59:19.836Z,2.38
2022-08-12T21:01:48.630Z,2.17
2022-08-12T21:04:37.234Z,2.00
2022-08-12T21:07:09.423Z,2.13
2022-08-12T21:09:41.515Z,1.95
2022-08-12T21:12:27.495Z,1.90
2022-08-12T21:15:18.056Z,1.83
2022-08-12T21:18:08.109Z,1.88
2022-08-12T21:20:35.535Z,1.58
2022-08-12T21:23:05.822Z,1.58
2022-08-12T21:25:35.805Z,1.77
2022-08-12T21:28:12.614Z,1.70
2022-08-12T21:30:55.139Z,1.60
2022-08-12T21:33:45.569Z,1.48
2022-08-12T21:36:22.893Z,1.35
2022-08-12T21:39:01.839Z,1.42
2022-08-12T21:41:51.026Z,1.52
2022-08-12T21:45:44.491Z,1.80
2022-08-12T21:47:19.890Z,1.77
2022-08-12T21:49:55.382Z,1.98
2022-08-12T21:52:28.293Z,2.22
2022-08-12T21:55:02.596Z,2.00
2022-08-12T21:57:36.510Z,2.35
2022-08-12T22:00:16.879Z,2.08
2022-08-12T22:03:02.720Z,1.90
2022-08-12T22:05:47.898Z,2.08
2022-08-12T22:08:17.055Z,1.95
2022-08-12T22:10:52.361Z,2.50
2022-08-12T22:14:07.299Z,1.83
2022-08-12T22:16:07.429Z,2.10
2022-08-12T22:18:34.110Z,2.10
2022-08-12T22:21:00.934Z,1.75
2022-08-12T22:23:28.530Z,1.85
2022-08-12T22:26:15.945Z,1.48
2022-08-12T22:29:17.262Z,1.83
2022-08-12T22:31:48.077Z,1.80
2022-08-12T22:34:18.251Z,1.45
2022-08-12T22:36:47.369Z,1.83
2022-08-12T22:39:17.475Z,2.55
2022-08-12T22:42:03.088Z,2.38
2022-08-12T22:44:54.414Z,2.60
2022-08-12T22:47:54.342Z,4.07
2022-08-12T22:50:26.937Z,6.22
2022-08-12T22:53:16.455Z,6.07
2022-08-12T22:55:59.699Z,5.22
2022-08-12T22:58:33.725Z,7.43
2022-08-12T23:01:02.001Z,4.22
2022-08-12T23:03:47.880Z,3.83
2022-08-12T23:06:18.395Z,3.80
2022-08-12T23:08:46.408Z,3.30
2022-08-12T23:11:13.138Z,3.13
2022-08-12T23:13:47.212Z,2.15
2022-08-12T23:16:29.546Z,2.63
2022-08-12T23:19:09.733Z,2.53
2022-08-12T23:22:05.858Z,2.78
2022-08-12T23:24:34.987Z,2.40
2022-08-12T23:27:21.802Z,3.20
2022-08-12T23:30:05.872Z,2.83
2022-08-12T23:32:36.826Z,2.53
2022-08-12T23:35:06.451Z,2.67
2022-08-12T23:37:47.783Z,3.95
2022-08-12T23:40:21.967Z,5.00
2022-08-12T23:42:49.281Z,2.55
2022-08-12T23:45:20.638Z,3.15
2022-08-12T23:47:58.414Z,3.42
2022-08-12T23:50:34.036Z,3.08
2022-08-12T23:53:22.484Z,3.15
2022-08-12T23:55:49.861Z,3.58
2022-08-12T23:58:22.828Z,3.13
